Time;durP1;ratioP1;P1;durP2;ratioP2;P2;SDS_P1;SDS_P2;PMS_P1;PMS_P2;Temp;Humidity;BMP_temperature;BMP_pressure;BME280_temperature;BME280_humidity;BME280_pressure;Samples;Min_cycle;Max_cycle;Signal;HPM_P1;HPM_P2
2022/07/20 00:00:47;;;;;;;8.00;7.40;;;;;;;24.30;63.38;95932.53;5077912;28;20043;-66
2022/07/20 00:03:13;;;;;;;7.60;7.00;;;;;;;24.28;63.59;95933.78;5080722;28;20035;-67
2022/07/20 00:05:43;;;;;;;10.43;7.43;;;;;;;24.27;63.49;95941.03;5085745;28;20410;-67
2022/07/20 00:08:09;;;;;;;7.90;7.20;;;;;;;24.24;64.07;95937.97;5090051;28;20028;-67
2022/07/20 00:13:20;;;;;;;;;;;;;;;24.23;64.42;95947.91;5078574;28;20036;-67
2022/07/20 00:15:45;;;;;;;7.72;7.07;;;;;;;24.23;64.09;95942.53;5084313;28;20306;-67
2022/07/20 00:18:12;;;;;;;7.93;7.28;;;;;;;24.23;63.89;95947.91;5073239;28;20116;-67
2022/07/20 00:20:37;;;;;;;9.73;7.47;;;;;;;24.22;63.62;95940.06;5075117;28;20043;-67
2022/07/20 00:23:04;;;;;;;7.72;7.03;;;;;;;24.17;63.79;95948.78;5081108;28;20028;-66
2022/07/20 00:25:29;;;;;;;9.00;6.97;;;;;;;24.19;63.48;95946.69;5075240;28;20499;-66
2022/07/20 00:27:55;;;;;;;7.57;6.97;;;;;;;24.11;64.21;95952.38;5079001;28;20065;-67
2022/07/20 00:30:21;;;;;;;8.70;7.25;;;;;;;23.97;64.96;95959.72;5080901;28;20493;-67
2022/07/20 00:32:47;;;;;;;8.18;7.47;;;;;;;23.79;65.68;95953.22;5076193;28;20068;-67
2022/07/20 00:35:14;;;;;;;7.53;6.82;;;;;;;23.69;65.57;95960.97;5077697;28;20017;-67
2022/07/20 00:37:41;;;;;;;7.88;6.93;;;;;;;23.72;65.89;95955.16;5077889;28;20036;-67
2022/07/20 00:40:08;;;;;;;7.95;7.15;;;;;;;23.73;65.71;95952.22;5081869;28;20024;-67
2022/07/20 00:42:34;;;;;;;8.15;7.35;;;;;;;23.72;65.29;95963.22;5082537;28;20141;-67
2022/07/20 00:44:59;;;;;;;8.23;7.43;;;;;;;23.75;65.56;95966.28;5079438;28;20029;-67
2022/07/20 00:47:25;;;;;;;9.48;7.57;;;;;;;23.72;66.54;95964.03;5088619;28;20031;-67
2022/07/20 00:49:50;;;;;;;8.02;7.30;;;;;;;23.65;66.75;95957.06;5080069;28;20077;-66
2022/07/20 00:52:16;;;;;;;7.95;7.40;;;;;;;23.65;67.14;95962.44;5074276;28;20657;-67
2022/07/20 00:54:48;;;;;;;8.35;7.65;;;;;;;23.66;66.67;95959.53;5078988;28;20411;-67
2022/07/20 00:57:15;;;;;;;8.50;7.82;;;;;;;23.65;66.60;95962.44;5081045;28;20115;-67
2022/07/20 00:59:40;;;;;;;8.10;7.28;;;;;;;23.80;65.47;95960.25;5080155;28;20043;-66
2022/07/20 01:02:06;;;;;;;8.23;7.47;;;;;;;23.79;65.24;95963.19;5080375;28;20496;-67
2022/07/20 01:04:31;;;;;;;8.23;7.53;;;;;;;23.74;66.46;95967.31;5083038;28;20024;-67
2022/07/20 01:06:57;;;;;;;8.55;7.55;;;;;;;23.70;66.15;95966.13;5082486;28;20039;-66
2022/07/20 01:09:22;;;;;;;7.47;6.95;;;;;;;23.69;66.24;95966.34;5088735;28;20020;-67
2022/07/20 01:11:48;;;;;;;7.35;6.75;;;;;;;23.65;66.29;95955.22;5088839;28;20033;-67
2022/07/20 01:14:13;;;;;;;8.70;7.75;;;;;;;23.63;66.74;95965.34;5078121;28;20528;-67
2022/07/20 01:16:39;;;;;;;8.30;7.63;;;;;;;23.61;66.95;95962.06;5080808;28;20380;-67
2022/07/20 01:19:06;;;;;;;8.45;7.63;;;;;;;23.56;67.51;95961.91;5077947;28;20047;-67
2022/07/20 01:21:32;;;;;;;9.23;7.00;;;;;;;23.52;67.12;95953.44;5085191;28;20067;-67
2022/07/20 01:23:58;;;;;;;8.20;7.50;;;;;;;23.56;66.43;95948.47;5079109;28;20060;-67
2022/07/20 01:26:24;;;;;;;8.35;7.43;;;;;;;23.54;66.40;95951.34;5081985;28;20081;-67
2022/07/20 01:28:50;;;;;;;7.72;7.07;;;;;;;23.45;67.74;95953.47;5082312;28;20032;-67
2022/07/20 01:31:16;;;;;;;8.57;7.78;;;;;;;23.37;67.64;95959.13;5085883;28;20447;-67
2022/07/20 01:33:41;;;;;;;7.97;7.28;;;;;;;23.29;68.30;95957.53;5082034;28;20028;-67
2022/07/20 01:36:07;;;;;;;11.20;7.72;;;;;;;23.26;68.65;95949.06;5078778;28;20025;-67
2022/07/20 01:38:33;;;;;;;8.43;7.60;;;;;;;23.26;69.81;95959.81;5080687;28;20104;-67
2022/07/20 01:40:58;;;;;;;8.32;7.63;;;;;;;23.20;69.03;95955.28;5082388;28;20441;-67
2022/07/20 01:43:23;;;;;;;8.23;7.53;;;;;;;23.17;69.11;95954.66;5086983;28;20032;-67
2022/07/20 01:45:49;;;;;;;8.20;7.50;;;;;;;23.14;69.68;95960.47;5079259;28;20054;-67
2022/07/20 01:48:14;;;;;;;7.95;7.28;;;;;;;23.10;68.54;95959.25;5087834;28;20069;-67
2022/07/20 01:50:40;;;;;;;11.80;7.35;;;;;;;23.12;68.50;95953.66;5084829;28;20024;-67
2022/07/20 01:53:07;;;;;;;8.52;7.78;;;;;;;23.16;68.51;95955.72;5082183;28;20500;-67
2022/07/20 01:55:32;;;;;;;9.15;8.25;;;;;;;23.23;68.37;95960.22;5081340;28;20024;-66
2022/07/20 01:57:58;;;;;;;8.90;8.15;;;;;;;23.23;69.27;95965.56;5090631;28;20039;-66
2022/07/20 02:00:23;;;;;;;8.02;7.43;;;;;;;23.17;68.81;95959.19;5090618;28;20032;-67
2022/07/20 02:02:49;;;;;;;8.05;7.35;;;;;;;23.15;68.46;95964.81;5065280;28;20503;-67
2022/07/20 02:05:15;;;;;;;8.85;8.00;;;;;;;23.20;68.32;95960.66;5079723;28;20028;-67
2022/07/20 02:07:41;;;;;;;9.05;8.23;;;;;;;23.16;68.83;95961.06;5078132;28;20025;-67
2022/07/20 02:10:09;;;;;;;8.75;7.82;;;;;;;23.12;68.83;95964.41;5084269;28;20039;-67
2022/07/20 02:12:36;;;;;;;8.65;7.95;;;;;;;23.07;69.46;95959.66;5085603;28;20027;-67
2022/07/20 02:15:02;;;;;;;7.93;7.32;;;;;;;23.09;68.68;95954.91;5074924;28;20032;-67
2022/07/20 02:17:27;;;;;;;8.85;8.15;;;;;;;23.13;68.70;95961.50;5084823;28;20020;-66
2022/07/20 02:19:53;;;;;;;8.98;8.27;;;;;;;23.02;69.35;95960.34;5079238;28;20024;-67
2022/07/20 02:22:18;;;;;;;9.27;8.27;;;;;;;22.86;69.76;95958.94;5077785;28;20533;-67
2022/07/20 02:24:43;;;;;;;8.93;8.02;;;;;;;22.72;70.63;95962.72;5080799;28;20035;-67
2022/07/20 02:27:09;;;;;;;8.30;7.70;;;;;;;22.61;71.05;95958.84;5087599;28;20057;-67
2022/07/20 02:29:34;;;;;;;9.05;8.25;;;;;;;22.52;70.83;95950.22;5074912;28;20032;-67
2022/07/20 02:32:00;;;;;;;9.55;8.65;;;;;;;22.37;71.53;95955.78;5077900;28;20021;-67
2022/07/20 02:34:25;;;;;;;9.15;8.32;;;;;;;22.38;71.54;95959.28;5082309;28;20047;-67
2022/07/20 02:36:50;;;;;;;9.30;8.15;;;;;;;22.42;71.36;95960.50;5081483;28;20066;-67
2022/07/20 02:39:16;;;;;;;10.00;9.15;;;;;;;22.49;71.20;95957.84;5080666;28;20046;-67
2022/07/20 02:41:41;;;;;;;8.90;8.23;;;;;;;22.47;71.29;95968.78;5080096;28;20029;-67
2022/07/20 02:44:07;;;;;;;9.32;8.63;;;;;;;22.49;70.95;95971.25;5080151;28;20507;-67
2022/07/20 02:46:32;;;;;;;9.75;8.88;;;;;;;22.48;71.54;95967.75;5077487;28;20024;-67
2022/07/20 02:48:57;;;;;;;9.18;8.50;;;;;;;22.42;72.70;95969.38;5087065;28;20036;-66
2022/07/20 02:51:23;;;;;;;9.57;8.77;;;;;;;22.41;72.19;95967.75;5088265;28;20063;-67
2022/07/20 02:53:48;;;;;;;9.15;8.40;;;;;;;22.42;72.64;95969.38;5080024;28;20040;-66
2022/07/20 02:56:13;;;;;;;9.40;8.60;;;;;;;22.47;71.93;95974.16;5082062;28;20024;-67
2022/07/20 02:58:39;;;;;;;9.57;8.68;;;;;;;22.44;71.59;95975.38;5086834;28;20048;-67
2022/07/20 03:01:04;;;;;;;9.23;8.52;;;;;;;22.45;71.44;95974.31;5085893;28;20059;-67
2022/07/20 03:03:29;;;;;;;8.95;8.25;;;;;;;22.49;70.99;95974.78;5080407;28;20075;-67
2022/07/20 03:05:55;;;;;;;9.55;8.85;;;;;;;22.46;72.95;95983.22;5073105;28;20035;-67
2022/07/20 03:08:20;;;;;;;9.15;8.50;;;;;;;22.43;72.87;95983.59;5079813;28;20088;-67
2022/07/20 03:10:46;;;;;;;8.98;8.20;;;;;;;22.40;72.61;95984.03;5072719;28;20027;-67
2022/07/20 03:13:11;;;;;;;9.35;8.40;;;;;;;22.40;72.95;95984.03;5092126;28;20395;-67
2022/07/20 03:15:37;;;;;;;9.52;8.82;;;;;;;22.36;73.57;95985.50;5077666;28;20104;-67
2022/07/20 03:18:02;;;;;;;9.50;8.80;;;;;;;22.32;73.10;95982.38;5075512;28;20024;-66
2022/07/20 03:20:34;;;;;;;9.63;8.73;;;;;;;22.26;73.96;95984.06;5077775;28;20503;-67
2022/07/20 03:23:00;;;;;;;8.90;8.30;;;;;;;22.24;72.82;95980.78;5084614;28;20078;-67
2022/07/20 03:25:26;;;;;;;9.40;8.63;;;;;;;22.22;73.08;95982.00;5079097;28;20100;-67
2022/07/20 03:27:56;;;;;;;8.88;8.07;;;;;;;22.17;72.89;95994.19;5079768;28;20024;-67
2022/07/20 03:30:23;;;;;;;9.82;8.82;;;;;;;22.16;73.58;96000.59;5084371;28;20483;-67
2022/07/20 03:32:48;;;;;;;9.65;8.77;;;;;;;22.06;73.93;95994.00;5079967;28;20111;-67
2022/07/20 03:35:14;;;;;;;8.85;8.25;;;;;;;21.99;73.75;95996.66;5074939;28;20111;-67
2022/07/20 03:37:40;;;;;;;8.82;8.02;;;;;;;21.92;74.79;95994.00;5083990;28;20557;-67
2022/07/20 03:40:06;;;;;;;10.07;9.07;;;;;;;21.91;74.20;96002.25;5085701;28;20063;-67
2022/07/20 03:42:33;;;;;;;10.57;8.85;;;;;;;21.89;74.56;96000.59;5079205;28;20016;-67
2022/07/20 03:44:59;;;;;;;9.85;8.93;;;;;;;21.94;74.26;96005.31;5087338;28;20020;-67
2022/07/20 03:47:24;;;;;;;9.20;8.23;;;;;;;21.96;74.13;96007.81;5069534;28;20662;-67
2022/07/20 03:49:50;;;;;;;10.40;8.70;;;;;;;21.99;73.40;96010.06;5068168;28;20028;-67
2022/07/20 03:52:17;;;;;;;9.05;8.40;;;;;;;21.97;73.38;96012.94;5081636;28;20051;-67
2022/07/20 03:54:43;;;;;;;10.43;9.27;;;;;;;21.96;74.03;96016.66;5073481;28;20029;-66
2022/07/20 03:57:08;;;;;;;10.55;8.93;;;;;;;21.92;74.50;96017.31;5073020;28;20380;-66
2022/07/20 03:59:34;;;;;;;10.18;9.35;;;;;;;21.93;73.78;96021.63;5077146;28;20023;-66
2022/07/20 04:01:59;;;;;;;11.38;8.98;;;;;;;21.91;74.48;96034.41;5078404;28;20051;-67
2022/07/20 04:04:25;;;;;;;10.52;9.48;;;;;;;21.88;74.40;96031.13;5080807;28;20032;-67
2022/07/20 04:06:50;;;;;;;9.43;8.73;;;;;;;21.91;74.48;96035.22;5077885;28;20016;-67
2022/07/20 04:09:43;;;;;;;11.13;9.15;;;;;;;21.87;74.65;96042.03;5073491;28;20147;-67
2022/07/20 04:12:04;;;;;;;10.27;9.43;;;;;;;21.81;74.96;96042.84;5082975;28;20032;-67
2022/07/20 04:14:29;;;;;;;10.02;9.07;;;;;;;21.77;74.66;96046.94;5078039;28;20113;-69
2022/07/20 04:16:54;;;;;;;14.75;11.15;;;;;;;21.77;75.27;96041.59;5080618;28;20055;-67
2022/07/20 04:19:20;;;;;;;12.48;9.38;;;;;;;21.70;76.47;96053.13;5082310;28;20035;-68
2022/07/20 04:21:46;;;;;;;9.48;8.68;;;;;;;21.66;75.90;96056.41;5080900;28;20117;-68
2022/07/20 04:24:11;;;;;;;10.35;9.30;;;;;;;21.66;75.36;96059.09;5077680;28;20021;-64
2022/07/20 04:26:36;;;;;;;9.98;9.23;;;;;;;21.71;74.85;96060.13;5082424;28;20020;-64
2022/07/20 04:29:02;;;;;;;9.93;9.02;;;;;;;21.72;75.18;96069.00;5082039;28;20499;-64
2022/07/20 04:31:27;;;;;;;10.35;9.60;;;;;;;21.74;75.05;96073.13;5083988;28;20055;-64
2022/07/20 04:33:52;;;;;;;11.25;10.15;;;;;;;21.74;75.34;96078.47;5077586;28;20016;-63
2022/07/20 04:36:18;;;;;;;11.20;9.10;;;;;;;21.77;75.73;96074.59;5081186;28;20032;-64
2022/07/20 04:38:43;;;;;;;9.50;8.75;;;;;;;21.75;75.79;96074.78;5077964;28;20013;-64
2022/07/20 04:41:08;;;;;;;9.63;8.90;;;;;;;21.77;75.55;96076.41;5088946;28;20032;-65
2022/07/20 04:43:34;;;;;;;9.43;8.68;;;;;;;21.78;74.91;96080.78;5081804;28;20032;-65
2022/07/20 04:45:59;;;;;;;10.20;9.20;;;;;;;21.82;75.48;96079.34;5085048;28;20052;-65
2022/07/20 04:48:24;;;;;;;11.43;8.70;;;;;;;21.82;75.54;96080.16;5086090;28;20028;-65
2022/07/20 04:50:50;;;;;;;10.85;9.95;;;;;;;21.85;75.52;96071.69;5081155;28;20717;-65
2022/07/20 04:53:15;;;;;;;9.82;9.13;;;;;;;21.79;76.37;96071.72;5082179;28;20020;-65
2022/07/20 04:55:40;;;;;;;9.98;9.07;;;;;;;21.74;76.28;96073.13;5079846;28;20024;-64
2022/07/20 04:58:06;;;;;;;10.23;9.35;;;;;;;21.78;75.48;96070.88;5080495;28;20052;-65
2022/07/20 05:00:31;;;;;;;10.10;9.32;;;;;;;21.88;74.58;96067.78;5082506;28;20020;-65
2022/07/20 05:02:57;;;;;;;11.85;10.15;;;;;;;21.93;75.78;96076.03;5077965;28;20048;-65
2022/07/20 05:05:22;;;;;;;10.65;9.55;;;;;;;21.93;75.10;96073.34;5084769;28;20051;-65
2022/07/20 05:07:47;;;;;;;9.90;9.10;;;;;;;21.93;75.31;96068.00;5079872;28;20032;-65
2022/07/20 05:10:13;;;;;;;11.77;9.20;;;;;;;21.84;76.16;96079.97;5086230;28;20017;-65
2022/07/20 05:12:38;;;;;;;10.57;9.63;;;;;;;21.79;76.19;96079.75;5077811;28;20415;-64
2022/07/20 05:15:04;;;;;;;10.07;8.93;;;;;;;21.78;76.12;96078.09;5082178;28;20067;-65
2022/07/20 05:17:29;;;;;;;10.73;9.82;;;;;;;21.79;75.37;96083.25;5078423;28;20031;-65
2022/07/20 05:19:55;;;;;;;13.50;9.65;;;;;;;21.84;76.15;96079.97;5078790;28;20036;-64
2022/07/20 05:22:20;;;;;;;10.40;9.43;;;;;;;21.88;76.02;96076.69;5080591;28;20029;-65
2022/07/20 05:24:45;;;;;;;10.43;9.00;;;;;;;21.97;75.78;96076.47;5078028;28;20104;-65
2022/07/20 05:27:11;;;;;;;10.60;9.10;;;;;;;22.11;75.24;96070.09;5076852;28;20082;-65
2022/07/20 05:29:36;;;;;;;14.95;9.35;;;;;;;22.31;75.41;96071.91;5089178;28;20073;-66
2022/07/20 05:32:02;;;;;;;11.15;9.93;;;;;;;22.47;74.89;96076.09;5079282;28;20028;-65
2022/07/20 05:34:27;;;;;;;10.73;9.73;;;;;;;22.60;74.02;96081.41;5075748;28;20017;-65
2022/07/20 05:36:52;;;;;;;10.48;9.60;;;;;;;22.71;74.31;96071.09;5080466;28;20020;-65
2022/07/20 05:39:18;;;;;;;10.85;9.32;;;;;;;22.82;72.62;96073.13;5084646;28;20019;-65
2022/07/20 05:41:43;;;;;;;10.20;9.20;;;;;;;23.01;72.64;96073.28;5080639;28;20024;-65
2022/07/20 05:44:08;;;;;;;12.20;9.55;;;;;;;23.04;72.29;96071.00;5084012;28;20491;-65
2022/07/20 05:46:34;;;;;;;11.02;9.63;;;;;;;23.09;72.08;96070.34;5073469;28;20143;-65
2022/07/20 05:48:59;;;;;;;10.80;9.80;;;;;;;23.17;71.87;96075.50;5084544;28;20024;-65
2022/07/20 05:51:24;;;;;;;11.68;9.15;;;;;;;23.21;72.64;96077.75;5080068;28;20024;-65
2022/07/20 05:53:50;;;;;;;18.63;9.20;;;;;;;23.26;72.11;96081.50;5085494;28;20056;-65
2022/07/20 05:56:15;;;;;;;9.82;8.75;;;;;;;23.40;71.34;96079.56;5078640;28;20032;-65
2022/07/20 05:58:41;;;;;;;9.80;8.82;;;;;;;23.59;70.58;96072.44;5084913;28;20032;-65
2022/07/20 06:01:06;;;;;;;9.73;8.93;;;;;;;23.74;69.91;96079.41;5082307;28;20562;-65
2022/07/20 06:03:31;;;;;;;10.52;9.48;;;;;;;23.85;69.60;96076.00;5085989;28;20028;-65
2022/07/20 06:05:56;;;;;;;11.88;9.70;;;;;;;23.89;69.14;96071.84;5087722;28;20028;-65
2022/07/20 06:08:22;;;;;;;9.80;8.93;;;;;;;23.87;68.50;96075.78;5084656;28;20462;-65
2022/07/20 06:10:47;;;;;;;9.73;8.73;;;;;;;23.80;69.20;96073.16;5076670;28;20028;-65
2022/07/20 06:13:13;;;;;;;14.32;9.40;;;;;;;23.91;68.94;96073.50;5076086;28;20479;-65
2022/07/20 06:15:39;;;;;;;15.60;8.77;;;;;;;24.02;68.02;96072.81;5080615;28;20028;-65
2022/07/20 06:18:05;;;;;;;11.85;8.93;;;;;;;24.20;67.57;96065.88;5084390;28;20454;-65
2022/07/20 06:20:31;;;;;;;12.32;8.55;;;;;;;24.41;66.32;96067.34;5077580;28;20021;-65
2022/07/20 06:22:58;;;;;;;8.98;8.27;;;;;;;24.57;65.52;96071.34;5075081;28;20119;-65
2022/07/20 06:25:24;;;;;;;9.35;8.43;;;;;;;24.72;64.49;96073.69;5077014;28;20055;-64
2022/07/20 06:27:49;;;;;;;9.70;8.23;;;;;;;24.86;63.91;96066.31;5078843;28;20069;-63
2022/07/20 06:30:15;;;;;;;9.63;8.30;;;;;;;25.03;62.19;96064.69;5078973;28;20113;-63
2022/07/20 06:32:40;;;;;;;8.05;7.43;;;;;;;25.23;62.35;96066.31;5076740;28;20020;-64
2022/07/20 06:35:06;;;;;;;9.07;8.38;;;;;;;25.45;61.11;96071.22;5086537;28;20153;-65
2022/07/20 06:37:32;;;;;;;9.18;8.27;;;;;;;25.66;60.81;96061.03;5080187;28;20016;-65
2022/07/20 06:39:57;;;;;;;9.70;8.32;;;;;;;25.91;60.08;96055.47;5082681;28;20031;-65
2022/07/20 06:42:23;;;;;;;8.90;8.20;;;;;;;26.07;59.20;96064.75;5081419;28;20058;-70
2022/07/20 06:44:49;;;;;;;9.98;8.15;;;;;;;26.15;59.25;96063.59;5075068;28;20029;-69
2022/07/20 06:47:15;;;;;;;8.80;7.95;;;;;;;26.50;58.04;96070.94;5082382;28;20035;-69
2022/07/20 06:49:41;;;;;;;8.57;7.88;;;;;;;26.67;57.28;96075.66;5080476;28;20090;-70
2022/07/20 06:52:06;;;;;;;8.73;7.88;;;;;;;26.88;56.67;96071.53;5084334;28;20020;-69
2022/07/20 06:54:32;;;;;;;8.07;7.20;;;;;;;27.16;54.77;96070.81;5085974;28;20030;-69
2022/07/20 06:56:57;;;;;;;9.27;8.35;;;;;;;27.73;53.07;96077.31;5078002;28;20103;-68
2022/07/20 06:59:23;;;;;;;11.13;7.82;;;;;;;27.92;52.59;96079.81;5080565;28;20031;-68
2022/07/20 07:01:49;;;;;;;8.05;7.45;;;;;;;28.30;51.48;96072.13;5077089;28;20101;-68
2022/07/20 07:04:15;;;;;;;7.95;7.22;;;;;;;28.54;50.96;96063.81;5082156;28;20035;-68
2022/07/20 07:06:40;;;;;;;13.05;7.07;;;;;;;28.48;51.10;96071.03;5077567;28;20065;-68
2022/07/20 07:09:06;;;;;;;10.60;7.70;;;;;;;28.34;51.28;96081.38;5075643;28;20021;-68
2022/07/20 07:11:32;;;;;;;7.72;7.00;;;;;;;28.39;50.94;96072.50;5059379;28;20020;-68
2022/07/20 07:13:57;;;;;;;7.13;6.53;;;;;;;28.36;50.41;96073.00;5073289;28;20032;-73
2022/07/20 07:16:24;;;;;;;7.38;6.78;;;;;;;28.49;50.54;96077.25;5083285;28;20024;-70
2022/07/20 07:18:50;;;;;;;7.20;6.68;;;;;;;28.64;50.14;96074.78;5076342;28;20106;-75
2022/07/20 07:21:15;;;;;;;7.90;7.20;;;;;;;28.58;49.20;96076.59;5076834;28;20107;-69
2022/07/20 07:23:40;;;;;;;6.72;6.13;;;;;;;28.75;48.86;96075.75;5076753;28;20031;-70
2022/07/20 07:26:06;;;;;;;8.32;6.80;;;;;;;28.76;48.98;96071.97;5081003;28;20425;-75
2022/07/20 07:28:31;;;;;;;6.45;5.97;;;;;;;29.22;47.10;96079.94;5077047;28;20031;-69
2022/07/20 07:30:57;;;;;;;7.10;6.40;;;;;;;28.95;48.10;96079.84;5082356;28;20028;-68
2022/07/20 07:33:25;;;;;;;7.15;6.45;;;;;;;29.30;47.45;96084.13;5077753;28;20121;-69
2022/07/20 07:35:54;;;;;;;10.60;6.13;;;;;;;29.44;46.54;96074.53;5081235;28;20016;-69
2022/07/20 07:38:20;;;;;;;6.57;5.95;;;;;;;29.51;46.33;96078.94;5076846;28;20082;-69
2022/07/20 07:40:45;;;;;;;7.65;5.85;;;;;;;29.64;47.43;96081.28;5077697;28;20514;-69
2022/07/20 07:43:10;;;;;;;9.00;6.35;;;;;;;29.79;45.84;96077.09;5080205;28;20042;-69
2022/07/20 07:45:36;;;;;;;7.10;5.70;;;;;;;29.91;45.83;96080.44;5073588;28;20426;-69
2022/07/20 07:48:01;;;;;;;8.77;6.10;;;;;;;30.20;44.65;96076.66;5077750;28;20099;-69
2022/07/20 07:50:27;;;;;;;6.53;5.55;;;;;;;30.13;44.68;96076.88;5083263;28;20032;-69
2022/07/20 07:52:52;;;;;;;5.75;5.35;;;;;;;30.45;44.33;96070.63;5087083;28;20056;-69
2022/07/20 07:55:18;;;;;;;6.18;5.68;;;;;;;30.57;42.79;96073.16;5073315;28;20028;-69
2022/07/20 07:57:43;;;;;;;7.22;6.35;;;;;;;30.70;41.79;96063.78;5077546;28;20020;-69
2022/07/20 08:00:09;;;;;;;6.68;5.63;;;;;;;30.89;41.44;96064.16;5083449;28;20034;-69
2022/07/20 08:02:35;;;;;;;12.55;6.20;;;;;;;31.48;41.40;96064.97;5077177;28;20048;-70
2022/07/20 08:05:00;;;;;;;5.68;5.13;;;;;;;31.40;41.81;96060.88;5084146;28;20628;-69
2022/07/20 08:07:26;;;;;;;6.13;5.55;;;;;;;31.63;41.30;96053.31;5082945;28;20503;-70
2022/07/20 08:09:51;;;;;;;6.88;5.30;;;;;;;31.89;40.44;96055.31;5089796;28;20035;-70
2022/07/20 08:12:16;;;;;;;6.00;5.40;;;;;;;32.17;39.83;96061.31;5084111;28;20024;-70
2022/07/20 08:14:42;;;;;;;5.88;5.45;;;;;;;32.15;40.69;96059.69;5079852;28;20054;-69
2022/07/20 08:17:07;;;;;;;5.90;5.18;;;;;;;32.25;40.36;96056.16;5077979;28;20115;-70
2022/07/20 08:19:33;;;;;;;6.85;5.03;;;;;;;32.69;39.55;96060.22;5080914;28;20569;-69
2022/07/20 08:21:59;;;;;;;8.52;5.25;;;;;;;33.06;39.23;96061.00;5083747;28;20103;-70
2022/07/20 08:24:24;;;;;;;6.22;5.07;;;;;;;32.91;37.98;96053.66;5081908;28;20633;-69
2022/07/20 08:26:49;;;;;;;5.40;5.00;;;;;;;32.89;37.34;96055.03;5076202;28;20017;-69
2022/07/20 08:29:15;;;;;;;6.18;4.93;;;;;;;32.92;38.97;96049.03;5079215;28;20522;-69
2022/07/20 08:31:40;;;;;;;5.40;5.00;;;;;;;33.31;38.03;96055.69;5081067;28;20023;-69
2022/07/20 08:34:05;;;;;;;5.38;4.97;;;;;;;33.46;37.31;96047.50;5084473;28;20016;-69
2022/07/20 08:36:31;;;;;;;5.30;4.80;;;;;;;33.70;36.68;96049.53;5086190;28;20038;-68
2022/07/20 08:38:56;;;;;;;5.28;4.88;;;;;;;33.75;36.05;96041.31;5079040;28;20033;-69
2022/07/20 08:41:22;;;;;;;5.45;4.95;;;;;;;33.92;35.33;96040.91;5074057;28;20043;-70
2022/07/20 08:43:47;;;;;;;5.43;4.90;;;;;;;34.00;35.40;96037.63;5079405;28;20032;-70
2022/07/20 08:46:13;;;;;;;5.90;5.10;;;;;;;33.93;35.33;96037.09;5080735;28;20028;-70
2022/07/20 08:48:42;;;;;;;5.53;4.70;;;;;;;34.12;35.22;96030.97;5083855;28;20033;-70
2022/07/20 08:51:07;;;;;;;5.97;4.68;;;;;;;34.07;35.51;96034.56;5083861;28;20021;-69
2022/07/20 08:53:33;;;;;;;5.32;4.93;;;;;;;34.05;35.35;96035.94;5076254;28;20476;-69
2022/07/20 08:55:58;;;;;;;8.38;5.03;;;;;;;33.97;36.19;96034.63;5075321;28;20044;-69
2022/07/20 08:58:24;;;;;;;5.13;4.72;;;;;;;34.18;35.15;96035.31;5079628;28;20532;-69
2022/07/20 09:00:49;;;;;;;5.22;4.07;;;;;;;34.57;35.01;96031.69;5074594;28;20056;-69
2022/07/20 09:03:15;;;;;;;5.45;4.95;;;;;;;34.47;34.96;96028.19;5075563;28;20646;-69
2022/07/20 09:05:42;;;;;;;5.05;4.55;;;;;;;34.68;34.12;96026.94;5075102;28;20016;-69
2022/07/20 09:08:17;;;;;;;4.85;4.55;;;;;;;34.66;33.71;96023.66;5075113;28;20024;-69
2022/07/20 09:10:46;;;;;;;5.00;4.60;;;;;;;34.94;34.52;96025.84;5074716;28;20029;-69
2022/07/20 09:13:18;;;;;;;5.68;4.50;;;;;;;35.09;33.77;96024.88;5087836;28;20021;-69
2022/07/20 09:15:47;;;;;;;5.00;4.50;;;;;;;34.88;34.04;96024.28;5075990;28;20497;-69
2022/07/20 09:18:18;;;;;;;5.90;4.30;;;;;;;34.72;31.92;96027.19;5076271;28;20059;-69
2022/07/20 09:20:49;;;;;;;16.02;4.25;;;;;;;34.55;33.17;96022.97;5078867;28;20032;-69
2022/07/20 09:23:20;;;;;;;5.85;4.03;;;;;;;35.05;32.09;96021.94;5077886;28;20044;-69
2022/07/20 09:25:50;;;;;;;4.68;4.38;;;;;;;34.81;30.58;96014.47;5078796;28;20052;-70
2022/07/20 09:28:15;;;;;;;5.65;4.68;;;;;;;35.49;29.06;96010.97;5083935;28;20028;-70
2022/07/20 09:30:55;;;;;;;4.43;4.07;;;;;;;35.96;27.95;96017.41;5080902;28;20020;-70
2022/07/20 09:33:31;;;;;;;4.35;4.00;;;;;;;35.47;27.56;96019.47;5073646;28;20036;-69
2022/07/20 09:36:00;;;;;;;4.38;3.97;;;;;;;35.26;28.09;96014.25;5079917;28;20024;-69
2022/07/20 09:38:38;;;;;;;5.65;4.38;;;;;;;35.21;28.88;96005.31;5089132;28;20131;-70
2022/07/20 09:41:07;;;;;;;4.45;4.05;;;;;;;35.23;27.96;96005.81;5083073;28;20025;-71
2022/07/20 09:43:35;;;;;;;6.22;4.35;;;;;;;35.55;27.21;96005.13;5084152;28;20057;-71
2022/07/20 09:46:16;;;;;;;5.57;3.95;;;;;;;35.26;28.38;96005.22;5081619;28;20020;-71
2022/07/20 09:48:47;;;;;;;4.07;3.78;;;;;;;35.31;27.92;96002.44;5081299;28;20110;-70
2022/07/20 09:51:16;;;;;;;6.05;4.30;;;;;;;35.19;28.66;95993.84;5083263;28;20020;-70
2022/07/20 09:53:42;;;;;;;5.68;3.95;;;;;;;35.59;28.17;95994.41;5079923;28;20107;-70
2022/07/20 09:56:08;;;;;;;4.35;3.95;;;;;;;35.70;27.38;95990.44;5080529;28;20111;-71
2022/07/20 09:58:34;;;;;;;5.32;4.20;;;;;;;35.87;27.67;95989.06;5086568;28;20020;-71
2022/07/20 10:01:00;;;;;;;4.20;3.90;;;;;;;36.17;26.93;95984.25;5077966;28;20024;-71
2022/07/20 10:03:27;;;;;;;4.45;4.05;;;;;;;36.64;24.55;95994.41;5081982;28;20034;-71
2022/07/20 10:05:52;;;;;;;4.13;3.83;;;;;;;36.87;25.29;95981.59;5081798;28;20027;-71
2022/07/20 10:08:18;;;;;;;9.07;3.92;;;;;;;36.49;25.33;95979.03;5074837;28;20028;-70
2022/07/20 10:10:43;;;;;;;4.10;3.80;;;;;;;35.96;25.55;95970.03;5079959;28;20038;-71
2022/07/20 10:13:10;;;;;;;5.20;3.83;;;;;;;36.20;27.13;95975.41;5080452;28;20032;-71
2022/07/20 10:15:43;;;;;;;6.57;4.30;;;;;;;37.35;23.63;95974.03;5082527;28;20016;-71
2022/07/20 10:18:10;;;;;;;4.37;4.07;;;;;;;36.10;25.93;95973.66;5077093;28;20028;-72
2022/07/20 10:20:37;;;;;;;4.40;4.00;;;;;;;36.43;24.75;95972.81;5074850;28;20789;-72
2022/07/20 10:23:14;;;;;;;5.97;3.90;;;;;;;36.32;24.92;95968.63;5072928;28;20032;-70
2022/07/20 10:25:40;;;;;;;4.00;3.60;;;;;;;35.83;26.49;95971.59;5079591;28;20012;-71
2022/07/20 10:28:25;;;;;;;5.32;4.00;;;;;;;36.60;25.02;95974.19;5075783;28;20811;-71
2022/07/20 10:30:52;;;;;;;4.13;3.80;;;;;;;36.24;25.10;95965.47;5080668;28;20510;-72
2022/07/20 10:33:18;;;;;;;4.68;3.95;;;;;;;36.64;24.67;95972.47;5075167;28;20032;-75
2022/07/20 10:35:47;;;;;;;5.65;3.88;;;;;;;36.86;24.56;95957.22;5079641;28;20510;-73
2022/07/20 10:38:18;;;;;;;3.83;3.53;;;;;;;37.07;24.54;95961.19;5074721;28;20028;-72
2022/07/20 10:44:19;;;;;;;4.40;4.05;;;;;;;36.35;25.26;95951.56;5071932;28;20046;-70
2022/07/20 10:46:44;;;;;;;4.28;3.97;;;;;;;36.25;26.30;95944.34;5077590;28;20410;-72
2022/07/20 10:49:10;;;;;;;4.33;4.03;;;;;;;36.69;26.03;95944.94;5083649;28;20027;-72
2022/07/20 10:51:35;;;;;;;4.75;4.00;;;;;;;37.12;24.34;95943.78;5081336;28;20644;-74
2022/07/20 10:54:32;;;;;;;3.90;3.60;;;;;;;37.03;23.81;95934.69;5081432;28;20024;-70
2022/07/20 10:56:58;;;;;;;6.10;3.75;;;;;;;36.53;25.03;95934.25;5074279;28;20502;-71
2022/07/20 10:59:23;;;;;;;4.43;4.13;;;;;;;36.92;25.98;95934.06;5086496;28;20027;-73
2022/07/20 11:01:49;;;;;;;5.57;4.18;;;;;;;37.34;25.32;95923.00;5081103;28;20045;-75
2022/07/20 11:04:15;;;;;;;5.68;3.97;;;;;;;37.58;23.80;95920.03;5083462;28;20056;-70
2022/07/20 11:06:41;;;;;;;4.07;3.85;;;;;;;37.20;24.19;95918.41;5081165;28;20390;-72
2022/07/20 11:09:07;;;;;;;3.90;3.60;;;;;;;36.86;25.42;95913.34;5074143;28;20032;-70
2022/07/20 11:11:35;;;;;;;3.38;3.13;;;;;;;37.46;23.32;95909.56;5080142;28;20021;-71
2022/07/20 11:14:04;;;;;;;5.15;3.83;;;;;;;38.58;21.28;95902.66;5077431;28;20081;-68
2022/07/20 11:16:30;;;;;;;3.80;3.50;;;;;;;37.87;21.88;95912.47;5084034;28;20032;-69
2022/07/20 11:18:57;;;;;;;4.03;3.72;;;;;;;37.44;21.67;95905.50;5076985;28;20024;-71
2022/07/20 11:21:34;;;;;;;9.30;3.35;;;;;;;37.83;21.27;95902.13;5077954;28;20403;-70
2022/07/20 11:24:00;;;;;;;4.40;3.58;;;;;;;38.09;20.81;95893.22;5073201;28;20119;-70
2022/07/20 11:26:25;;;;;;;5.22;3.65;;;;;;;37.89;21.92;95897.28;5072811;28;20052;-70
2022/07/20 11:28:57;;;;;;;3.40;3.10;;;;;;;38.15;19.83;95885.66;5074301;28;20024;-69
2022/07/20 11:31:26;;;;;;;7.95;3.28;;;;;;;37.91;20.49;95892.28;5079519;28;20035;-70
2022/07/20 11:33:53;;;;;;;3.58;3.28;;;;;;;37.53;21.14;95881.72;5090618;28;20068;-69